createdAt,value
2022-11-27T00:00:04.320Z,49.25
2022-11-27T00:01:04.310Z,43.78
2022-11-27T00:02:04.361Z,51.80
2022-11-27T00:03:04.389Z,54.14
2022-11-27T00:04:04.325Z,61.87
2022-11-27T00:05:04.269Z,53.46
2022-11-27T00:06:04.278Z,61.28
2022-11-27T00:07:04.297Z,52.38
2022-11-27T00:08:04.252Z,50.42
2022-11-27T00:09:04.239Z,47.04
2022-11-27T00:10:04.236Z,57.63
2022-11-27T00:11:04.229Z,57.90
2022-11-27T00:12:04.245Z,55.32
2022-11-27T00:13:04.211Z,59.21
2022-11-27T00:14:04.416Z,49.36
2022-11-27T00:15:04.410Z,41.97
2022-11-27T00:16:04.470Z,55.75
2022-11-27T00:17:04.425Z,51.18
2022-11-27T00:18:04.442Z,61.75
2022-11-27T00:19:04.336Z,42.57
2022-11-27T00:20:04.345Z,49.91
2022-11-27T00:21:04.258Z,59.81
2022-11-27T00:22:04.254Z,48.87
2022-11-27T00:23:04.175Z,53.55
2022-11-27T00:24:04.120Z,66.10
2022-11-27T00:25:04.115Z,43.83
2022-11-27T00:26:04.110Z,54.53
2022-11-27T00:27:04.128Z,52.75
2022-11-27T00:28:04.078Z,55.15
2022-11-27T00:29:04.077Z,63.80
2022-11-27T00:30:04.082Z,56.86
2022-11-27T00:31:04.136Z,53.90
2022-11-27T00:32:04.078Z,45.78
2022-11-27T00:33:04.047Z,40.39
2022-11-27T00:34:04.033Z,40.56
2022-11-27T00:35:04.039Z,49.19
2022-11-27T00:36:04.023Z,41.93
2022-11-27T00:37:04.049Z,41.92
2022-11-27T00:38:04.020Z,53.52
2022-11-27T00:39:03.993Z,51.16
2022-11-27T00:40:04.000Z,53.28
2022-11-27T00:41:03.978Z,56.45
2022-11-27T00:42:04.019Z,52.56
2022-11-27T00:43:03.964Z,50.85
2022-11-27T00:44:03.962Z,49.02
2022-11-27T00:45:03.954Z,49.99
2022-11-27T00:46:03.951Z,66.23
2022-11-27T00:47:04.031Z,46.74
2022-11-27T00:48:03.919Z,44.18
2022-11-27T00:49:03.919Z,57.55
2022-11-27T00:50:04.016Z,53.97
2022-11-27T00:51:03.898Z,61.15
2022-11-27T00:52:03.921Z,51.61
2022-11-27T00:53:03.885Z,46.01
2022-11-27T00:54:03.876Z,49.57
2022-11-27T00:55:03.866Z,57.96
2022-11-27T00:56:03.856Z,43.15
2022-11-27T00:57:03.884Z,49.45
2022-11-27T00:58:03.845Z,58.24
2022-11-27T00:59:03.848Z,55.83
2022-11-27T01:00:03.826Z,51.62
2022-11-27T01:01:03.810Z,55.20
2022-11-27T01:02:03.936Z,54.38
2022-11-27T01:03:03.862Z,49.36
2022-11-27T01:04:03.799Z,49.62
2022-11-27T01:05:03.787Z,57.62
2022-11-27T01:06:03.780Z,54.45
2022-11-27T01:07:03.799Z,49.59
2022-11-27T01:08:44.240Z,54.89
2022-11-27T01:09:03.766Z,46.57
2022-11-27T01:10:03.755Z,49.46
2022-11-27T01:11:03.742Z,40.26
2022-11-27T01:12:03.764Z,42.90
2022-11-27T01:13:03.726Z,57.72
2022-11-27T01:14:03.722Z,43.00
2022-11-27T01:15:03.711Z,44.55
2022-11-27T01:16:03.789Z,44.03
2022-11-27T01:17:03.719Z,40.24
2022-11-27T01:18:03.696Z,40.03
2022-11-27T01:19:03.678Z,40.04
2022-11-27T01:20:03.666Z,41.76
2022-11-27T01:21:03.666Z,48.50
2022-11-27T01:22:03.681Z,50.72
2022-11-27T01:23:03.636Z,55.19
2022-11-27T01:24:03.630Z,58.95
2022-11-27T01:25:03.614Z,51.60
2022-11-27T01:26:03.617Z,41.73
2022-11-27T01:27:03.638Z,48.17
2022-11-27T01:28:03.591Z,53.06
2022-11-27T01:29:03.587Z,49.65
2022-11-27T01:30:03.581Z,40.67
2022-11-27T01:31:03.591Z,41.14
2022-11-27T01:32:03.581Z,49.24
2022-11-27T01:33:03.585Z,40.62
2022-11-27T01:34:03.557Z,48.77
2022-11-27T01:35:03.545Z,48.18
2022-11-27T01:36:03.531Z,58.93
2022-11-27T01:37:03.524Z,56.82
2022-11-27T01:38:03.534Z,42.05
2022-11-27T01:39:04.545Z,48.49
2022-11-27T01:40:03.498Z,42.49
2022-11-27T01:41:03.491Z,55.82
2022-11-27T01:42:03.487Z,41.18
2022-11-27T01:43:03.501Z,40.39
2022-11-27T01:44:03.471Z,41.45
2022-11-27T01:45:03.469Z,53.78
2022-11-27T01:46:03.477Z,48.85
2022-11-27T01:47:03.448Z,40.92
2022-11-27T01:48:03.465Z,45.21
2022-11-27T01:49:03.429Z,45.77
2022-11-27T01:50:03.412Z,56.06
2022-11-27T01:51:03.409Z,59.73
2022-11-27T01:52:03.411Z,51.61
2022-11-27T01:53:03.428Z,49.32
2022-11-27T01:54:03.394Z,49.62
2022-11-27T01:55:03.371Z,42.50
2022-11-27T01:56:03.372Z,57.96
2022-11-27T01:57:03.355Z,50.64
2022-11-27T01:58:03.384Z,49.88
2022-11-27T01:59:03.341Z,40.33
2022-11-27T02:00:03.335Z,40.05
2022-11-27T02:01:03.328Z,40.87
2022-11-27T02:02:03.425Z,47.22
2022-11-27T02:03:03.457Z,43.27
2022-11-27T02:04:03.311Z,45.41
2022-11-27T02:05:03.302Z,47.02
2022-11-27T02:06:03.288Z,48.85
2022-11-27T02:07:03.277Z,50.97
2022-11-27T02:08:03.296Z,47.57
2022-11-27T02:09:03.261Z,47.35
2022-11-27T02:10:03.244Z,45.24
2022-11-27T02:11:03.251Z,48.07
2022-11-27T02:12:03.254Z,40.44
2022-11-27T02:13:03.255Z,45.35
2022-11-27T02:14:03.213Z,54.40
2022-11-27T02:15:03.205Z,44.70
2022-11-27T02:16:03.247Z,50.98
2022-11-27T02:17:03.194Z,46.73
2022-11-27T02:18:03.225Z,48.58
2022-11-27T02:19:03.177Z,53.62
2022-11-27T02:20:03.184Z,54.06
2022-11-27T02:21:03.163Z,44.94
2022-11-27T02:22:03.150Z,50.47
2022-11-27T02:23:03.177Z,56.59
2022-11-27T02:24:03.153Z,56.30
2022-11-27T02:25:03.129Z,49.87
2022-11-27T02:26:03.118Z,45.59
2022-11-27T02:27:03.117Z,41.82
2022-11-27T02:28:03.103Z,41.10
2022-11-27T02:29:03.131Z,56.50
2022-11-27T02:30:03.082Z,48.35
2022-11-27T02:31:03.106Z,56.20
2022-11-27T02:32:03.068Z,48.30
2022-11-27T02:33:03.054Z,41.53
2022-11-27T02:34:03.086Z,39.99
2022-11-27T02:35:03.044Z,39.90
2022-11-27T02:36:03.032Z,44.31
2022-11-27T02:37:03.018Z,51.52
2022-11-27T02:38:03.019Z,51.36
2022-11-27T02:39:03.050Z,53.84
2022-11-27T02:40:02.992Z,55.56
2022-11-27T02:41:02.988Z,50.98
2022-11-27T02:42:03.061Z,48.54
2022-11-27T02:43:02.971Z,40.21
2022-11-27T02:44:02.999Z,40.11
2022-11-27T02:45:02.963Z,40.42
2022-11-27T02:46:02.976Z,49.56
2022-11-27T02:47:03.942Z,53.77
2022-11-27T02:48:02.932Z,50.10
2022-11-27T02:49:02.954Z,50.33
2022-11-27T02:50:02.928Z,49.12
2022-11-27T02:51:02.908Z,40.39
2022-11-27T02:52:23.250Z,48.21
2022-11-27T02:53:02.900Z,42.79
2022-11-27T02:54:02.904Z,40.91
2022-11-27T02:55:02.874Z,40.92
2022-11-27T02:56:02.862Z,50.89
2022-11-27T02:57:02.858Z,55.32
2022-11-27T02:58:08.768Z,68.06
2022-11-27T02:59:03.936Z,53.76
2022-11-27T03:00:02.851Z,43.56
2022-11-27T03:01:02.825Z,53.48
2022-11-27T03:02:02.907Z,56.31
2022-11-27T03:03:02.881Z,63.33
2022-11-27T03:04:02.819Z,41.57
2022-11-27T03:05:02.790Z,43.92
2022-11-27T03:06:02.780Z,47.99
2022-11-27T03:07:02.771Z,50.32
2022-11-27T03:08:02.770Z,45.12
2022-11-27T03:09:02.779Z,48.50
2022-11-27T03:10:02.739Z,50.42
2022-11-27T03:11:02.741Z,48.66
2022-11-27T03:12:02.731Z,48.29
2022-11-27T03:13:02.716Z,41.61
2022-11-27T03:14:02.747Z,39.88
2022-11-27T03:15:02.781Z,40.40
2022-11-27T03:16:02.747Z,47.36
2022-11-27T03:17:02.688Z,54.40
2022-11-27T03:18:02.693Z,59.76
2022-11-27T03:19:02.698Z,56.08
2022-11-27T03:20:02.667Z,42.97
2022-11-27T03:21:02.659Z,56.88
2022-11-27T03:22:02.635Z,52.92
2022-11-27T03:23:03.639Z,40.79
2022-11-27T03:24:02.659Z,39.88
2022-11-27T03:25:02.812Z,39.82
2022-11-27T03:26:02.610Z,47.58
2022-11-27T03:27:02.592Z,42.15
2022-11-27T03:28:03.599Z,50.49
2022-11-27T03:29:02.585Z,44.48
2022-11-27T03:30:02.614Z,47.79
2022-11-27T03:31:02.671Z,50.11
2022-11-27T03:32:02.564Z,55.81
2022-11-27T03:33:02.556Z,52.29
2022-11-27T03:34:02.565Z,53.03
2022-11-27T03:35:02.565Z,41.16
2022-11-27T03:36:02.531Z,39.91
2022-11-27T03:37:02.530Z,51.62
2022-11-27T03:38:02.519Z,60.77
2022-11-27T03:39:02.500Z,55.66
2022-11-27T03:40:02.533Z,44.79
2022-11-27T03:41:02.492Z,41.96
2022-11-27T03:42:02.475Z,41.39
2022-11-27T03:43:02.479Z,51.85
2022-11-27T03:44:02.459Z,43.77
2022-11-27T03:45:02.487Z,39.88
2022-11-27T03:46:02.517Z,39.90
2022-11-27T03:47:02.522Z,45.14
2022-11-27T03:48:02.429Z,60.70
2022-11-27T03:49:02.423Z,43.66
2022-11-27T03:50:02.444Z,53.06
2022-11-27T03:51:02.415Z,52.01
2022-11-27T03:52:02.391Z,56.26
2022-11-27T03:53:02.385Z,56.02
2022-11-27T03:54:02.381Z,54.26
2022-11-27T03:55:02.414Z,47.23
2022-11-27T03:56:06.757Z,46.14
2022-11-27T03:57:04.354Z,41.69
2022-11-27T03:58:02.348Z,40.47
2022-11-27T03:59:02.340Z,48.40
2022-11-27T04:00:02.368Z,47.11
2022-11-27T04:01:17.613Z,49.09
2022-11-27T04:02:02.349Z,46.67
2022-11-27T04:03:02.387Z,50.29
2022-11-27T04:04:02.339Z,47.90
2022-11-27T04:05:02.323Z,52.28
2022-11-27T04:06:02.307Z,47.63
2022-11-27T04:07:02.294Z,45.01
2022-11-27T04:08:02.264Z,43.12
2022-11-27T04:09:02.257Z,48.43
2022-11-27T04:10:02.285Z,46.23
2022-11-27T04:11:02.260Z,42.75
2022-11-27T04:12:02.243Z,47.32
2022-11-27T04:13:02.233Z,46.61
2022-11-27T04:14:02.217Z,49.26
2022-11-27T04:15:02.213Z,48.69
2022-11-27T04:16:02.378Z,59.08
2022-11-27T04:17:02.200Z,51.36
2022-11-27T04:18:02.185Z,58.63
2022-11-27T04:19:02.256Z,54.97
2022-11-27T04:20:02.165Z,55.33
2022-11-27T04:21:02.194Z,54.10
2022-11-27T04:22:02.158Z,47.42
2022-11-27T04:23:02.147Z,49.69
2022-11-27T04:24:02.145Z,51.52
2022-11-27T04:25:02.124Z,49.51
2022-11-27T04:26:02.164Z,54.31
2022-11-27T04:27:02.121Z,42.28
2022-11-27T04:28:02.105Z,51.11
2022-11-27T04:29:02.093Z,54.83
2022-11-27T04:30:02.088Z,50.39
2022-11-27T04:31:02.160Z,46.34
2022-11-27T04:32:02.073Z,45.48
2022-11-27T04:33:02.067Z,49.83
2022-11-27T04:34:02.054Z,48.92
2022-11-27T04:35:02.125Z,47.15
2022-11-27T04:36:02.071Z,46.37
2022-11-27T04:37:02.025Z,48.48
2022-11-27T04:38:02.026Z,52.79
2022-11-27T04:39:02.023Z,55.90
2022-11-27T04:40:02.016Z,48.86
2022-11-27T04:41:02.020Z,44.13
2022-11-27T04:42:01.995Z,49.55
2022-11-27T04:43:01.981Z,60.49
2022-11-27T04:44:01.977Z,46.91
2022-11-27T04:45:01.973Z,48.19
2022-11-27T04:46:01.983Z,45.93
2022-11-27T04:47:01.997Z,43.42
2022-11-27T04:48:01.949Z,48.40
2022-11-27T04:49:01.919Z,47.20
2022-11-27T04:50:02.928Z,41.21
2022-11-27T04:51:02.100Z,48.98
2022-11-27T04:52:01.908Z,39.62
2022-11-27T04:53:01.898Z,40.05
2022-11-27T04:54:17.592Z,53.74
2022-11-27T04:55:01.870Z,53.60
2022-11-27T04:56:02.897Z,46.16
2022-11-27T04:57:01.869Z,63.85
2022-11-27T04:58:01.856Z,51.93
2022-11-27T04:59:01.855Z,43.32
2022-11-27T05:00:01.839Z,46.56
2022-11-27T05:01:01.943Z,40.53
2022-11-27T05:02:01.825Z,57.21
2022-11-27T05:03:01.873Z,45.51
2022-11-27T05:04:01.819Z,52.98
2022-11-27T05:05:01.822Z,41.50
2022-11-27T05:06:01.826Z,45.93
2022-11-27T05:07:01.854Z,51.02
2022-11-27T05:08:02.814Z,60.68
2022-11-27T05:09:01.769Z,52.82
2022-11-27T05:10:01.755Z,53.44
2022-11-27T05:11:02.751Z,51.21
2022-11-27T05:12:01.738Z,40.77
2022-11-27T05:13:01.764Z,50.85
2022-11-27T05:14:01.723Z,66.55
2022-11-27T05:15:04.436Z,47.39
2022-11-27T05:16:02.778Z,41.47
2022-11-27T05:17:01.699Z,46.57
2022-11-27T05:18:01.724Z,56.02
2022-11-27T05:19:01.698Z,50.72
2022-11-27T05:20:01.688Z,51.91
2022-11-27T05:21:01.663Z,48.03
2022-11-27T05:22:01.650Z,49.20
2022-11-27T05:23:01.877Z,52.44
2022-11-27T05:24:01.631Z,56.89
2022-11-27T05:25:01.636Z,42.29
2022-11-27T05:26:01.615Z,47.36
2022-11-27T05:27:01.612Z,53.31
2022-11-27T05:28:01.622Z,42.99
2022-11-27T05:29:02.601Z,61.51
2022-11-27T05:30:01.584Z,51.88
2022-11-27T05:31:01.601Z,40.56
2022-11-27T05:32:01.578Z,46.83
2022-11-27T05:33:01.837Z,43.72
2022-11-27T05:34:01.556Z,61.03
2022-11-27T05:35:01.547Z,61.31
2022-11-27T05:36:01.528Z,53.99
2022-11-27T05:37:01.526Z,41.25
2022-11-27T05:38:01.551Z,56.78
2022-11-27T05:39:01.585Z,44.15
2022-11-27T05:40:01.499Z,53.98
2022-11-27T05:41:01.490Z,56.06
2022-11-27T05:42:01.478Z,48.17
2022-11-27T05:43:01.501Z,53.46
2022-11-27T05:44:01.473Z,61.70
2022-11-27T05:45:01.462Z,50.72
2022-11-27T05:46:01.447Z,53.41
2022-11-27T05:47:01.522Z,49.15
2022-11-27T05:48:01.458Z,41.61
2022-11-27T05:49:01.428Z,48.76
2022-11-27T05:50:01.408Z,47.10
2022-11-27T05:51:01.402Z,54.22
2022-11-27T05:52:01.398Z,63.80
2022-11-27T05:53:21.997Z,47.70
2022-11-27T05:54:01.395Z,42.06
2022-11-27T05:55:01.441Z,41.26
2022-11-27T05:56:01.370Z,42.11
2022-11-27T05:57:01.354Z,49.01
2022-11-27T05:58:01.370Z,57.03
2022-11-27T05:59:01.337Z,48.57
2022-11-27T06:00:01.326Z,52.96
2022-11-27T06:01:01.321Z,47.35
2022-11-27T06:02:01.396Z,54.59
2022-11-27T06:03:01.419Z,44.58
2022-11-27T06:04:02.340Z,49.39
2022-11-27T06:05:01.289Z,53.28
2022-11-27T06:06:01.279Z,57.22
2022-11-27T06:07:01.275Z,52.40
2022-11-27T06:08:01.281Z,51.63
2022-11-27T06:09:01.280Z,41.18
2022-11-27T06:10:01.250Z,40.74
2022-11-27T06:11:01.309Z,50.05
2022-11-27T06:12:01.231Z,60.89
2022-11-27T06:13:01.218Z,42.91
2022-11-27T06:14:01.246Z,62.52
2022-11-27T06:15:01.204Z,60.11
2022-11-27T06:16:01.236Z,50.65
2022-11-27T06:17:01.185Z,48.43
2022-11-27T06:18:01.178Z,45.80
2022-11-27T06:19:01.201Z,48.45
2022-11-27T06:20:01.167Z,48.54
2022-11-27T06:21:01.158Z,55.56
2022-11-27T06:22:01.148Z,66.85
2022-11-27T06:23:01.132Z,44.60
2022-11-27T06:24:02.407Z,48.33
2022-11-27T06:25:01.115Z,47.25
2022-11-27T06:26:01.117Z,45.59
2022-11-27T06:27:01.171Z,56.36
2022-11-27T06:28:01.092Z,42.76
2022-11-27T06:29:01.107Z,46.89
2022-11-27T06:30:01.074Z,62.71
2022-11-27T06:31:41.714Z,44.85
2022-11-27T06:32:01.108Z,44.86
2022-11-27T06:33:01.052Z,59.74
2022-11-27T06:34:01.078Z,57.76
2022-11-27T06:35:01.045Z,42.49
2022-11-27T06:36:01.025Z,55.41
2022-11-27T06:37:01.018Z,55.66
2022-11-27T06:38:01.005Z,56.14
2022-11-27T06:39:01.027Z,50.75
2022-11-27T06:40:00.998Z,62.65
2022-11-27T06:41:00.988Z,55.47
2022-11-27T06:42:01.983Z,50.97
2022-11-27T06:43:01.042Z,52.64
2022-11-27T06:44:00.988Z,50.59
2022-11-27T06:45:00.953Z,46.57
2022-11-27T06:46:00.996Z,55.37
2022-11-27T06:47:00.935Z,58.18
2022-11-27T06:48:00.934Z,56.33
2022-11-27T06:49:00.953Z,53.58
2022-11-27T06:50:00.914Z,54.99
2022-11-27T06:51:00.898Z,43.20
2022-11-27T06:52:00.889Z,50.80
2022-11-27T06:53:00.883Z,51.52
2022-11-27T06:54:25.197Z,60.42
2022-11-27T06:55:00.873Z,44.03
2022-11-27T06:56:00.869Z,44.62
2022-11-27T06:57:00.855Z,62.40
2022-11-27T06:58:00.835Z,58.72
2022-11-27T06:59:00.972Z,55.48
2022-11-27T07:00:00.822Z,56.64
2022-11-27T07:01:00.861Z,54.40
2022-11-27T07:02:00.926Z,69.90
2022-11-27T07:03:00.796Z,54.07
2022-11-27T07:04:00.811Z,52.17
2022-11-27T07:05:00.774Z,57.88
2022-11-27T07:06:00.772Z,61.13
2022-11-27T07:07:00.761Z,61.17
2022-11-27T07:08:00.757Z,59.64
2022-11-27T07:09:00.784Z,46.79
2022-11-27T07:10:00.730Z,52.77
2022-11-27T07:11:00.723Z,57.24
2022-11-27T07:12:34.827Z,49.65
2022-11-27T07:13:00.718Z,43.74
2022-11-27T07:14:00.734Z,54.39
2022-11-27T07:15:04.194Z,45.47
2022-11-27T07:16:01.762Z,61.49
2022-11-27T07:17:00.676Z,56.90
2022-11-27T07:18:00.675Z,49.77
2022-11-27T07:19:00.692Z,53.58
2022-11-27T07:20:00.655Z,58.90
2022-11-27T07:21:00.640Z,49.54
2022-11-27T07:22:08.613Z,60.12
2022-11-27T07:23:00.622Z,55.17
2022-11-27T07:24:00.656Z,53.63
2022-11-27T07:25:00.605Z,47.79
2022-11-27T07:26:00.604Z,57.39
2022-11-27T07:27:00.588Z,54.16
2022-11-27T07:28:00.580Z,52.22
2022-11-27T07:29:00.609Z,59.82
2022-11-27T07:30:00.571Z,51.80
2022-11-27T07:31:00.646Z,61.97
2022-11-27T07:32:00.622Z,55.70
2022-11-27T07:33:00.548Z,54.38
2022-11-27T07:34:00.568Z,63.95
2022-11-27T07:35:00.530Z,63.40
2022-11-27T07:36:00.521Z,53.02
2022-11-27T07:37:00.499Z,59.14
2022-11-27T07:38:00.492Z,54.22
2022-11-27T07:39:00.522Z,55.68
2022-11-27T07:40:03.240Z,54.10
2022-11-27T07:41:01.479Z,58.81
2022-11-27T07:42:23.206Z,57.81
2022-11-27T07:43:01.622Z,60.61
2022-11-27T07:44:00.483Z,57.91
2022-11-27T07:45:00.440Z,59.58
2022-11-27T07:46:00.460Z,59.17
2022-11-27T07:47:00.487Z,68.80
2022-11-27T07:48:00.406Z,54.27
2022-11-27T07:49:01.442Z,53.24
2022-11-27T07:50:00.506Z,63.35
2022-11-27T07:51:00.403Z,57.99
2022-11-27T07:52:00.382Z,63.81
2022-11-27T07:53:00.364Z,59.36
2022-11-27T07:54:00.399Z,61.58
2022-11-27T07:55:00.350Z,56.45
2022-11-27T07:56:01.351Z,54.03
2022-11-27T07:57:00.335Z,54.64
2022-11-27T07:58:00.333Z,53.65
2022-11-27T07:59:00.351Z,59.65
2022-11-27T08:00:00.317Z,61.13
2022-11-27T08:01:00.369Z,67.39
2022-11-27T08:02:00.295Z,57.53
2022-11-27T08:03:00.370Z,59.78
2022-11-27T08:04:00.316Z,54.75
2022-11-27T08:05:00.379Z,54.81
2022-11-27T08:06:00.278Z,52.90
2022-11-27T08:07:00.279Z,64.39
2022-11-27T08:08:00.332Z,63.09
2022-11-27T08:09:00.281Z,64.09
2022-11-27T08:10:00.233Z,59.71
2022-11-27T08:11:00.224Z,55.91
2022-11-27T08:12:00.213Z,65.34
2022-11-27T08:13:00.202Z,60.57
2022-11-27T08:14:00.262Z,57.64
2022-11-27T08:15:00.211Z,58.54
2022-11-27T08:16:00.256Z,62.39
2022-11-27T08:17:00.163Z,70.56
2022-11-27T08:18:00.160Z,59.67
2022-11-27T08:19:00.424Z,57.75
2022-11-27T08:20:00.147Z,60.80
2022-11-27T08:21:00.138Z,65.24
2022-11-27T08:22:00.121Z,56.12
2022-11-27T08:23:03.046Z,60.72
2022-11-27T08:24:01.145Z,63.69
2022-11-27T08:25:00.104Z,58.21
2022-11-27T08:26:00.096Z,64.73
2022-11-27T08:27:00.100Z,64.95
2022-11-27T08:28:00.079Z,63.07
2022-11-27T08:29:00.111Z,57.59
2022-11-27T08:30:00.065Z,67.06
2022-11-27T08:31:00.051Z,57.49
2022-11-27T08:32:00.092Z,59.07
2022-11-27T08:33:00.035Z,57.29
2022-11-27T08:34:00.058Z,57.22
2022-11-27T08:35:00.092Z,70.13
2022-11-27T08:36:00.010Z,65.91
2022-11-27T08:37:00.001Z,59.97
2022-11-27T08:37:59.991Z,59.60
2022-11-27T08:38:59.989Z,56.27
2022-11-27T08:40:00.003Z,65.96
2022-11-27T08:40:59.967Z,65.23
2022-11-27T08:41:59.956Z,60.99
2022-11-27T08:42:59.948Z,65.40
2022-11-27T08:43:59.943Z,66.01
2022-11-27T08:45:00.957Z,55.16
2022-11-27T08:45:59.990Z,65.07
2022-11-27T08:46:59.909Z,67.95
2022-11-27T08:47:59.905Z,61.01
2022-11-27T08:48:59.893Z,56.88
2022-11-27T08:49:59.924Z,64.71
2022-11-27T08:50:59.944Z,59.22
2022-11-27T08:51:59.868Z,66.34
2022-11-27T08:52:59.863Z,60.15
2022-11-27T08:53:59.849Z,57.44
2022-11-27T08:54:59.890Z,63.67
2022-11-27T08:55:59.836Z,58.97
2022-11-27T08:56:59.820Z,56.37
2022-11-27T08:57:59.821Z,61.48
2022-11-27T08:58:59.816Z,62.34
2022-11-27T08:59:59.832Z,51.94
2022-11-27T09:00:59.819Z,60.98
2022-11-27T09:02:00.788Z,65.35
2022-11-27T09:02:59.771Z,50.94
2022-11-27T09:03:59.801Z,60.17
2022-11-27T09:04:59.790Z,61.92
2022-11-27T09:05:59.744Z,59.78
2022-11-27T09:06:59.816Z,55.51
2022-11-27T09:07:59.783Z,58.14
2022-11-27T09:08:59.722Z,59.61
2022-11-27T09:09:59.740Z,58.29
2022-11-27T09:10:59.712Z,63.54
2022-11-27T09:11:59.695Z,48.27
2022-11-27T09:12:59.700Z,64.72
2022-11-27T09:13:59.689Z,65.16
2022-11-27T09:14:59.705Z,55.69
2022-11-27T09:15:59.666Z,56.57
2022-11-27T09:16:59.756Z,54.41
2022-11-27T09:17:59.668Z,62.47
2022-11-27T09:18:59.643Z,68.08
2022-11-27T09:19:59.669Z,65.29
2022-11-27T09:20:59.621Z,62.71
2022-11-27T09:21:59.632Z,62.21
2022-11-27T09:22:59.687Z,64.98
2022-11-27T09:23:59.606Z,61.33
2022-11-27T09:24:59.624Z,65.01
2022-11-27T09:25:59.585Z,64.18
2022-11-27T09:26:59.592Z,64.58
2022-11-27T09:27:59.582Z,65.04
2022-11-27T09:28:59.577Z,61.52
2022-11-27T09:29:59.587Z,63.34
2022-11-27T09:30:59.546Z,58.03
2022-11-27T09:31:59.589Z,66.23
2022-11-27T09:32:59.529Z,57.33
2022-11-27T09:33:59.526Z,64.51
2022-11-27T09:34:59.564Z,64.55
2022-11-27T09:35:59.507Z,60.66
2022-11-27T09:36:59.494Z,64.51
2022-11-27T09:37:59.486Z,59.57
2022-11-27T09:38:59.556Z,64.25
2022-11-27T09:39:59.497Z,65.50
2022-11-27T09:41:03.071Z,66.23
2022-11-27T09:42:00.449Z,64.86
2022-11-27T09:42:59.459Z,63.45
2022-11-27T09:43:59.438Z,68.09
2022-11-27T09:44:59.452Z,59.40
2022-11-27T09:45:59.462Z,59.41
2022-11-27T09:46:59.413Z,63.68
2022-11-27T09:47:59.400Z,63.71
2022-11-27T09:48:59.403Z,60.69
2022-11-27T09:49:59.414Z,58.36
2022-11-27T09:50:59.377Z,63.38
2022-11-27T09:51:59.368Z,59.58
2022-11-27T09:52:59.366Z,62.79
2022-11-27T09:53:59.378Z,70.00
2022-11-27T09:54:59.439Z,55.88
2022-11-27T09:55:59.334Z,63.63
2022-11-27T09:56:59.314Z,69.11
2022-11-27T09:57:59.325Z,61.42
2022-11-27T09:58:59.314Z,63.79
2022-11-27T09:59:59.325Z,63.95
2022-11-27T10:00:59.288Z,66.03
2022-11-27T10:01:59.389Z,57.29
2022-11-27T10:02:59.322Z,60.53
2022-11-27T10:03:59.281Z,67.78
2022-11-27T10:05:13.459Z,61.43
2022-11-27T10:06:01.261Z,61.91
2022-11-27T10:06:59.239Z,65.26
2022-11-27T10:08:03.424Z,63.02
2022-11-27T10:09:01.227Z,61.94
2022-11-27T10:09:59.243Z,55.92
2022-11-27T10:10:59.279Z,62.44
2022-11-27T10:11:59.198Z,55.93
2022-11-27T10:12:59.409Z,55.49
2022-11-27T10:13:59.196Z,66.36
2022-11-27T10:14:59.214Z,59.87
2022-11-27T10:15:59.172Z,65.40
2022-11-27T10:16:59.220Z,59.59
2022-11-27T10:17:59.157Z,64.47
2022-11-27T10:18:59.145Z,63.85
2022-11-27T10:19:59.175Z,59.52
2022-11-27T10:20:59.139Z,61.99
2022-11-27T10:21:59.128Z,60.71
2022-11-27T10:22:59.118Z,64.55
2022-11-27T10:23:59.208Z,68.88
2022-11-27T10:24:59.128Z,63.74
2022-11-27T10:25:59.118Z,67.80
2022-11-27T10:26:59.158Z,63.21
2022-11-27T10:27:59.073Z,59.72
2022-11-27T10:28:59.072Z,63.08
2022-11-27T10:29:59.058Z,60.58
2022-11-27T10:30:59.074Z,62.44
2022-11-27T10:31:59.097Z,65.66
2022-11-27T10:32:59.148Z,64.04
2022-11-27T10:33:59.034Z,58.46
2022-11-27T10:34:59.027Z,60.93
2022-11-27T10:35:59.061Z,63.16
2022-11-27T10:36:59.003Z,64.88
2022-11-27T10:38:05.068Z,64.32
2022-11-27T10:39:00.990Z,67.08
2022-11-27T10:39:58.971Z,58.90
2022-11-27T10:40:58.986Z,60.85
2022-11-27T10:41:59.954Z,61.98
2022-11-27T10:42:59.020Z,67.25
2022-11-27T10:44:01.242Z,56.10
2022-11-27T10:44:58.946Z,67.30
2022-11-27T10:45:59.007Z,66.54
2022-11-27T10:46:58.918Z,62.42
2022-11-27T10:47:58.917Z,63.23
2022-11-27T10:48:58.899Z,61.65
2022-11-27T10:49:58.889Z,62.96
2022-11-27T10:50:58.916Z,62.69
2022-11-27T10:51:58.874Z,64.58
2022-11-27T10:52:58.871Z,55.94
2022-11-27T10:53:58.864Z,64.58
2022-11-27T10:54:58.863Z,63.26
2022-11-27T10:55:58.876Z,66.39
2022-11-27T10:56:58.842Z,65.78
2022-11-27T10:57:58.831Z,62.77
2022-11-27T10:58:58.907Z,61.56
2022-11-27T10:59:58.812Z,63.91
2022-11-27T11:00:58.863Z,64.56
2022-11-27T11:01:58.826Z,64.11
2022-11-27T11:02:58.790Z,65.04
2022-11-27T11:03:58.778Z,66.10
2022-11-27T11:05:24.057Z,61.77
2022-11-27T11:07:00.765Z,67.50
2022-11-27T11:07:58.840Z,67.26
2022-11-27T11:09:01.465Z,61.26
2022-11-27T11:09:59.734Z,65.03
2022-11-27T11:10:58.757Z,63.59
2022-11-27T11:11:58.716Z,62.61
2022-11-27T11:12:58.712Z,66.76
2022-11-27T11:13:58.700Z,64.96
2022-11-27T11:14:58.786Z,63.37
2022-11-27T11:15:58.682Z,59.81
2022-11-27T11:16:58.744Z,57.50
2022-11-27T11:17:58.662Z,64.68
2022-11-27T11:18:58.657Z,61.16
2022-11-27T11:19:58.648Z,65.79
2022-11-27T11:20:58.640Z,68.01
2022-11-27T11:21:58.656Z,63.28
2022-11-27T11:22:58.624Z,66.04
2022-11-27T11:23:58.617Z,64.67
2022-11-27T11:24:58.634Z,58.36
2022-11-27T11:25:58.597Z,71.00
2022-11-27T11:26:58.622Z,62.19
2022-11-27T11:27:58.580Z,63.65
2022-11-27T11:28:58.576Z,64.80
2022-11-27T11:29:58.567Z,59.72
2022-11-27T11:30:58.626Z,64.56
2022-11-27T11:31:58.604Z,62.33
2022-11-27T11:32:58.546Z,59.05
2022-11-27T11:33:58.533Z,65.77
2022-11-27T11:35:01.227Z,65.29
2022-11-27T11:35:59.518Z,64.99
2022-11-27T11:36:58.556Z,64.05
2022-11-27T11:37:58.493Z,61.87
2022-11-27T11:38:58.496Z,62.79
2022-11-27T11:39:58.472Z,67.46
2022-11-27T11:40:59.468Z,63.69
2022-11-27T11:41:58.497Z,58.30
2022-11-27T11:42:58.441Z,65.03
2022-11-27T11:43:59.448Z,66.06
2022-11-27T11:44:58.439Z,61.13
2022-11-27T11:45:58.464Z,62.07
2022-11-27T11:46:58.520Z,57.64
2022-11-27T11:47:58.428Z,66.62
2022-11-27T11:48:58.404Z,58.38
2022-11-27T11:49:58.395Z,61.65
2022-11-27T11:50:59.397Z,64.37
2022-11-27T11:51:58.410Z,66.01
2022-11-27T11:52:58.374Z,57.36
2022-11-27T11:53:58.367Z,68.57
2022-11-27T11:54:58.366Z,57.14
2022-11-27T11:55:58.350Z,58.57
2022-11-27T11:56:58.434Z,64.99
2022-11-27T11:57:58.335Z,62.31
2022-11-27T11:58:58.330Z,59.75
2022-11-27T11:59:58.300Z,66.70
2022-11-27T12:01:25.360Z,66.98
2022-11-27T12:02:00.459Z,67.17
2022-11-27T12:02:58.294Z,65.40
2022-11-27T12:03:58.324Z,62.67
2022-11-27T12:04:58.302Z,63.74
2022-11-27T12:05:58.267Z,62.06
2022-11-27T12:06:58.289Z,60.28
2022-11-27T12:07:58.295Z,68.04
2022-11-27T12:08:58.232Z,62.58
2022-11-27T12:09:58.229Z,60.25
2022-11-27T12:10:58.212Z,64.89
2022-11-27T12:11:58.237Z,62.83
2022-11-27T12:12:58.201Z,62.77
2022-11-27T12:13:58.195Z,63.67
2022-11-27T12:14:58.182Z,67.93
2022-11-27T12:15:58.192Z,65.06
2022-11-27T12:16:58.215Z,65.87
2022-11-27T12:17:59.227Z,63.65
2022-11-27T12:18:58.159Z,65.70
2022-11-27T12:19:58.137Z,62.38
2022-11-27T12:20:58.124Z,63.16
2022-11-27T12:21:58.150Z,64.32
2022-11-27T12:22:58.112Z,66.87
2022-11-27T12:23:58.101Z,62.51
2022-11-27T12:24:58.101Z,67.68
2022-11-27T12:25:58.089Z,61.41
2022-11-27T12:26:58.125Z,63.44
2022-11-27T12:27:58.069Z,68.91
2022-11-27T12:28:59.579Z,62.14
2022-11-27T12:29:59.060Z,67.42
2022-11-27T12:30:58.050Z,66.28
2022-11-27T12:31:58.102Z,67.23
2022-11-27T12:32:58.037Z,64.52
2022-11-27T12:33:58.096Z,67.73
2022-11-27T12:34:58.011Z,64.59
2022-11-27T12:35:58.003Z,61.28
2022-11-27T12:36:57.997Z,64.62
2022-11-27T12:37:58.016Z,64.11
2022-11-27T12:38:57.981Z,67.58
2022-11-27T12:39:57.980Z,67.62
2022-11-27T12:40:57.964Z,64.08
2022-11-27T12:41:57.956Z,66.54
2022-11-27T12:42:57.974Z,66.45
2022-11-27T12:43:57.936Z,59.69
2022-11-27T12:44:57.928Z,65.46
2022-11-27T12:45:57.960Z,66.94
2022-11-27T12:46:57.920Z,59.80
2022-11-27T12:47:57.934Z,61.35
2022-11-27T12:48:57.896Z,62.10
2022-11-27T12:49:57.949Z,67.15
2022-11-27T12:50:57.875Z,56.50
2022-11-27T12:51:57.869Z,66.98
2022-11-27T12:52:57.889Z,67.32